createdAt,value
2019-05-18T00:01:28.114Z,22.70
2019-05-18T00:03:56.577Z,23.50
2019-05-18T00:06:25.047Z,23.22
2019-05-18T00:08:53.530Z,23.47
2019-05-18T00:11:22.052Z,22.65
2019-05-18T00:13:50.596Z,24.25
2019-05-18T00:16:19.126Z,23.95
2019-05-18T00:18:47.634Z,24.32
2019-05-18T00:21:16.095Z,23.98
2019-05-18T00:23:44.552Z,23.45
2019-05-18T00:26:13.036Z,24.72
2019-05-18T00:28:41.493Z,24.80
2019-05-18T00:31:10.059Z,24.25
2019-05-18T00:33:38.514Z,24.92
2019-05-18T00:36:07.018Z,25.27
2019-05-18T00:38:35.554Z,24.70
2019-05-18T00:41:04.086Z,25.48
2019-05-18T00:43:32.558Z,24.77
2019-05-18T00:46:01.015Z,25.12
2019-05-18T00:48:29.508Z,24.95
2019-05-18T00:50:57.977Z,23.95
2019-05-18T00:53:26.458Z,25.77
2019-05-18T00:55:54.913Z,24.70
2019-05-18T00:58:23.410Z,25.57
2019-05-18T01:00:51.886Z,25.00
2019-05-18T01:03:20.355Z,24.82
2019-05-18T01:05:48.902Z,24.65
2019-05-18T01:08:17.365Z,24.37
2019-05-18T01:10:45.843Z,25.95
2019-05-18T01:13:14.364Z,25.37
2019-05-18T01:15:42.830Z,24.23
2019-05-18T01:18:11.305Z,23.87
2019-05-18T01:20:40.111Z,25.15
2019-05-18T01:23:08.841Z,25.30
2019-05-18T01:25:37.368Z,24.37
2019-05-18T01:28:05.875Z,24.23
2019-05-18T01:30:34.403Z,24.50
2019-05-18T01:33:03.143Z,24.30
2019-05-18T01:35:31.640Z,25.23
2019-05-18T01:38:00.084Z,24.52
2019-05-18T01:40:28.567Z,25.50
2019-05-18T01:42:57.036Z,24.92
2019-05-18T01:45:25.535Z,25.48
2019-05-18T01:47:54.007Z,25.12
2019-05-18T01:50:22.649Z,24.32
2019-05-18T01:52:51.387Z,25.25
2019-05-18T01:55:19.847Z,24.12
2019-05-18T01:57:48.323Z,25.27
2019-05-18T02:00:17.113Z,24.85
2019-05-18T02:02:45.678Z,24.60
2019-05-18T02:05:14.474Z,24.65
2019-05-18T02:07:42.937Z,24.43
2019-05-18T02:10:11.852Z,25.77
2019-05-18T02:12:40.383Z,25.82
2019-05-18T02:15:09.506Z,25.35
2019-05-18T02:17:38.042Z,24.43
2019-05-18T02:20:07.143Z,24.98
2019-05-18T02:22:35.632Z,25.72
2019-05-18T02:25:07.167Z,24.57
2019-05-18T02:27:35.666Z,25.02
2019-05-18T02:30:06.559Z,23.42
2019-05-18T02:32:35.015Z,24.15
2019-05-18T02:35:05.112Z,23.95
2019-05-18T02:37:33.651Z,25.17
2019-05-18T02:40:02.427Z,24.95
2019-05-18T02:42:31.057Z,24.43
2019-05-18T02:44:59.606Z,24.90
2019-05-18T02:47:28.078Z,24.47
2019-05-18T02:49:56.628Z,25.10
2019-05-18T02:52:25.175Z,23.45
2019-05-18T02:54:53.631Z,24.07
2019-05-18T02:57:22.124Z,23.60
2019-05-18T02:59:50.585Z,23.70
2019-05-18T03:02:19.043Z,22.80
2019-05-18T03:04:47.527Z,23.22
2019-05-18T03:07:16.195Z,23.42
2019-05-18T03:09:44.674Z,23.62
2019-05-18T03:12:13.145Z,22.60
2019-05-18T03:14:41.730Z,23.40
2019-05-18T03:17:10.266Z,22.77
2019-05-18T03:19:38.797Z,23.65
2019-05-18T03:22:07.359Z,22.58
2019-05-18T03:24:35.812Z,23.25
2019-05-18T03:27:04.348Z,22.95
2019-05-18T03:29:32.812Z,23.85
2019-05-18T03:32:01.327Z,22.58
2019-05-18T03:34:29.861Z,23.02
2019-05-18T03:36:58.394Z,23.18
2019-05-18T03:39:26.948Z,23.12
2019-05-18T03:41:55.477Z,23.52
2019-05-18T03:44:23.993Z,23.75
2019-05-18T03:46:52.562Z,22.82
2019-05-18T03:49:26.992Z,23.38
2019-05-18T03:51:51.215Z,22.80
2019-05-18T03:54:19.706Z,23.38
2019-05-18T03:56:48.230Z,23.83
2019-05-18T03:59:16.680Z,23.50
2019-05-18T04:01:45.229Z,22.93
2019-05-18T04:04:13.755Z,22.65
2019-05-18T04:06:42.241Z,23.27
2019-05-18T04:09:10.759Z,23.27
2019-05-18T04:11:39.317Z,24.35
2019-05-18T04:14:08.832Z,23.30
2019-05-18T04:16:37.514Z,23.22
2019-05-18T04:19:05.973Z,22.58
2019-05-18T04:21:34.421Z,23.30
2019-05-18T04:24:02.931Z,22.35
2019-05-18T04:26:31.376Z,24.43
2019-05-18T04:28:59.838Z,22.60
2019-05-18T04:31:31.939Z,23.27
2019-05-18T04:33:58.591Z,23.02
2019-05-18T04:36:27.044Z,24.15
2019-05-18T04:38:55.628Z,23.73
2019-05-18T04:41:24.085Z,23.10
2019-05-18T04:43:52.540Z,25.85
2019-05-18T04:46:21.049Z,25.77
2019-05-18T04:48:49.505Z,23.92
2019-05-18T04:51:17.969Z,24.32
2019-05-18T04:53:46.617Z,23.85
2019-05-18T04:56:15.078Z,25.12
2019-05-18T04:58:43.536Z,24.18
2019-05-18T05:01:12.032Z,25.60
2019-05-18T05:03:40.500Z,25.37
2019-05-18T05:06:08.973Z,25.55
2019-05-18T05:08:37.575Z,25.35
2019-05-18T05:11:06.156Z,26.15
2019-05-18T05:13:34.628Z,25.10
2019-05-18T05:16:03.142Z,25.62
2019-05-18T05:18:31.603Z,25.88
2019-05-18T05:21:00.126Z,26.90
2019-05-18T05:23:28.623Z,26.55
2019-05-18T05:25:57.084Z,27.77
2019-05-18T05:28:25.551Z,28.10
2019-05-18T05:30:54.057Z,28.40
2019-05-18T05:33:22.513Z,28.07
2019-05-18T05:35:50.969Z,30.12
2019-05-18T05:38:19.473Z,31.97
2019-05-18T05:40:47.931Z,31.07
2019-05-18T05:43:16.393Z,32.42
2019-05-18T05:45:44.896Z,32.70
2019-05-18T05:48:13.358Z,34.55
2019-05-18T05:50:41.828Z,35.43
2019-05-18T05:53:10.400Z,34.65
2019-05-18T05:55:38.860Z,34.38
2019-05-18T05:58:07.311Z,34.85
2019-05-18T06:00:35.833Z,34.83
2019-05-18T06:03:04.431Z,36.25
2019-05-18T06:05:32.900Z,36.50
2019-05-18T06:08:01.590Z,36.60
2019-05-18T06:10:30.055Z,38.08
2019-05-18T06:12:58.510Z,38.28
2019-05-18T06:15:27.020Z,38.73
2019-05-18T06:17:55.564Z,38.33
2019-05-18T06:20:24.031Z,40.28
2019-05-18T06:22:52.552Z,39.05
2019-05-18T06:25:21.012Z,40.33
2019-05-18T06:27:49.541Z,39.83
2019-05-18T06:30:18.704Z,40.43
2019-05-18T06:32:47.243Z,39.33
2019-05-18T06:35:15.885Z,38.53
2019-05-18T06:37:44.523Z,37.80
2019-05-18T06:40:13.053Z,38.98
2019-05-18T06:42:41.508Z,38.95
2019-05-18T06:45:10.273Z,36.70
2019-05-18T06:47:38.728Z,37.85
2019-05-18T06:50:12.557Z,38.08
2019-05-18T06:52:40.935Z,37.03
2019-05-18T06:55:11.162Z,37.28
2019-05-18T06:57:40.116Z,37.40
2019-05-18T07:00:10.846Z,38.50
2019-05-18T07:02:39.312Z,38.38
2019-05-18T07:05:08.045Z,39.10
2019-05-18T07:07:36.625Z,38.90
2019-05-18T07:10:09.375Z,39.15
2019-05-18T07:12:37.902Z,39.40
2019-05-18T07:15:08.851Z,38.80
2019-05-18T07:17:37.320Z,39.53
2019-05-18T07:20:06.642Z,37.38
2019-05-18T07:22:35.214Z,37.33
2019-05-18T07:25:05.428Z,38.75
2019-05-18T07:27:33.893Z,37.60
2019-05-18T07:30:02.588Z,38.50
2019-05-18T07:32:31.062Z,39.53
2019-05-18T07:34:59.529Z,40.38
2019-05-18T07:37:28.063Z,38.48
2019-05-18T07:39:56.683Z,38.48
2019-05-18T07:42:25.149Z,39.03
2019-05-18T07:44:53.724Z,39.55
2019-05-18T07:47:22.256Z,39.88
2019-05-18T07:49:50.730Z,39.53
2019-05-18T07:52:19.228Z,40.52
2019-05-18T07:54:47.692Z,40.75
2019-05-18T07:57:16.152Z,39.67
2019-05-18T07:59:44.667Z,40.43
2019-05-18T08:02:13.144Z,38.85
2019-05-18T08:04:41.613Z,39.67
2019-05-18T08:07:10.280Z,41.92
2019-05-18T08:09:38.735Z,39.85
2019-05-18T08:12:07.197Z,42.15
2019-05-18T08:14:35.700Z,40.50
2019-05-18T08:17:04.241Z,40.52
2019-05-18T08:19:32.687Z,41.15
2019-05-18T08:22:01.258Z,40.63
2019-05-18T08:24:29.715Z,41.00
2019-05-18T08:26:58.176Z,39.75
2019-05-18T08:29:26.668Z,40.17
2019-05-18T08:31:55.139Z,40.10
2019-05-18T08:34:23.666Z,38.35
2019-05-18T08:36:52.168Z,40.35
2019-05-18T08:39:20.628Z,38.70
2019-05-18T08:41:49.165Z,40.00
2019-05-18T08:44:17.870Z,38.45
2019-05-18T08:46:46.331Z,39.45
2019-05-18T08:49:14.864Z,38.30
2019-05-18T08:51:43.361Z,39.23
2019-05-18T08:54:11.827Z,38.67
2019-05-18T08:56:40.289Z,38.38
2019-05-18T08:59:08.804Z,39.80
2019-05-18T09:01:37.255Z,40.55
2019-05-18T09:04:05.717Z,39.40
2019-05-18T09:06:34.313Z,41.68
2019-05-18T09:09:04.418Z,40.23
2019-05-18T09:11:32.876Z,40.28
2019-05-18T09:14:01.584Z,41.68
2019-05-18T09:16:30.059Z,40.95
2019-05-18T09:18:58.518Z,43.52
2019-05-18T09:21:27.095Z,40.65
2019-05-18T09:23:55.553Z,42.62
2019-05-18T09:26:24.009Z,42.08
2019-05-18T09:28:52.515Z,43.13
2019-05-18T09:31:20.985Z,41.65
2019-05-18T09:33:49.452Z,41.40
2019-05-18T09:36:17.959Z,42.20
2019-05-18T09:38:46.488Z,40.45
2019-05-18T09:41:14.947Z,39.05
2019-05-18T09:43:43.523Z,39.42
2019-05-18T09:46:11.994Z,39.67
2019-05-18T09:48:40.457Z,38.67
2019-05-18T09:51:08.956Z,36.93
2019-05-18T09:53:50.480Z,36.35
2019-05-18T09:56:07.612Z,35.92
2019-05-18T09:58:36.256Z,35.68
2019-05-18T10:01:04.851Z,34.27
2019-05-18T10:03:33.321Z,35.78
2019-05-18T10:06:01.802Z,36.83
2019-05-18T10:08:30.258Z,35.00
2019-05-18T10:10:58.710Z,35.88
2019-05-18T10:13:27.454Z,36.35
2019-05-18T10:15:55.912Z,36.77
2019-05-18T10:18:24.391Z,36.35
2019-05-18T10:20:52.963Z,37.83
2019-05-18T10:23:21.433Z,35.85
2019-05-18T10:25:49.897Z,35.38
2019-05-18T10:28:18.403Z,34.60
2019-05-18T10:30:46.875Z,37.03
2019-05-18T10:33:15.329Z,35.23
2019-05-18T10:35:43.844Z,33.55
2019-05-18T10:38:12.312Z,33.78
2019-05-18T10:40:40.767Z,32.33
2019-05-18T10:43:09.260Z,34.75
2019-05-18T10:45:37.797Z,33.88
2019-05-18T10:48:06.472Z,33.90
2019-05-18T10:50:35.018Z,32.30
2019-05-18T10:53:03.478Z,32.67
2019-05-18T10:55:31.966Z,31.57
2019-05-18T10:58:00.525Z,32.53
2019-05-18T11:00:29.120Z,30.12
2019-05-18T11:02:57.597Z,30.88
2019-05-18T11:05:26.085Z,31.80
2019-05-18T11:07:54.557Z,33.28
2019-05-18T11:10:23.519Z,34.33
2019-05-18T11:12:52.333Z,31.42
2019-05-18T11:15:21.361Z,30.92
2019-05-18T11:17:49.965Z,31.87
2019-05-18T11:20:18.912Z,30.15
2019-05-18T11:22:47.429Z,30.27
2019-05-18T11:25:16.409Z,29.77
2019-05-18T11:27:44.926Z,30.20
2019-05-18T11:30:14.592Z,29.95
2019-05-18T11:32:43.046Z,29.67
2019-05-18T11:35:12.309Z,29.12
2019-05-18T11:37:40.982Z,28.05
2019-05-18T11:40:11.800Z,29.57
2019-05-18T11:42:40.434Z,29.95
2019-05-18T11:45:11.502Z,29.35
2019-05-18T11:47:39.942Z,28.80
2019-05-18T11:50:09.525Z,24.60
2019-05-18T11:52:38.204Z,27.40
2019-05-18T11:55:07.895Z,25.10
2019-05-18T11:57:36.539Z,25.02
2019-05-18T12:00:10.509Z,27.90
2019-05-18T12:02:38.972Z,27.07
2019-05-18T12:05:08.216Z,23.50
2019-05-18T12:07:36.686Z,22.73
2019-05-18T12:10:07.228Z,23.62
2019-05-18T12:12:35.928Z,21.02
2019-05-18T12:15:08.850Z,21.57
2019-05-18T12:17:37.462Z,21.68
2019-05-18T12:20:09.968Z,21.62
2019-05-18T12:22:38.525Z,19.48
2019-05-18T12:25:08.675Z,18.25
2019-05-18T12:27:37.302Z,18.95
2019-05-18T12:30:08.092Z,21.10
2019-05-18T12:32:36.552Z,21.80
2019-05-18T12:35:07.397Z,22.55
2019-05-18T12:37:35.856Z,22.10
2019-05-18T12:40:06.666Z,21.12
2019-05-18T12:42:35.175Z,21.07
2019-05-18T12:45:04.040Z,19.62
2019-05-18T12:47:32.502Z,20.35
2019-05-18T12:50:00.994Z,21.62
2019-05-18T12:52:29.521Z,21.45
2019-05-18T12:54:57.982Z,19.75
2019-05-18T12:57:26.633Z,19.55
2019-05-18T12:59:55.107Z,20.32
2019-05-18T13:02:23.645Z,18.70
2019-05-18T13:04:52.205Z,18.92
2019-05-18T13:07:20.684Z,17.42
2019-05-18T13:09:49.496Z,17.10
2019-05-18T13:12:17.990Z,16.48
2019-05-18T13:14:46.461Z,15.95
2019-05-18T13:17:14.918Z,15.30
2019-05-18T13:19:43.481Z,15.90
2019-05-18T13:22:11.945Z,14.60
2019-05-18T13:24:45.177Z,13.93
2019-05-18T13:27:10.645Z,15.53
2019-05-18T13:29:39.106Z,14.35
2019-05-18T13:32:07.629Z,14.28
2019-05-18T13:34:36.122Z,13.88
2019-05-18T13:37:04.585Z,14.40
2019-05-18T13:39:33.074Z,10.85
2019-05-18T13:42:01.644Z,9.50
2019-05-18T13:44:30.095Z,7.40
2019-05-18T13:46:58.629Z,6.75
2019-05-18T13:49:27.242Z,7.15
2019-05-18T13:51:55.724Z,6.00
2019-05-18T13:54:24.185Z,6.08
2019-05-18T13:56:52.667Z,5.97
2019-05-18T13:59:21.118Z,6.17
2019-05-18T14:01:49.584Z,10.32
2019-05-18T14:04:18.080Z,9.30
2019-05-18T14:06:46.541Z,11.30
2019-05-18T14:09:15.006Z,11.33
2019-05-18T14:11:43.502Z,11.33
2019-05-18T14:14:11.968Z,12.28
2019-05-18T14:16:40.428Z,10.55
2019-05-18T14:19:09.001Z,11.50
2019-05-18T14:21:37.472Z,11.28
2019-05-18T14:24:05.930Z,9.98
2019-05-18T14:26:34.446Z,9.68
2019-05-18T14:29:03.029Z,10.65
2019-05-18T14:31:31.561Z,9.28
2019-05-18T14:34:00.137Z,9.50
2019-05-18T14:36:28.595Z,8.95
2019-05-18T14:38:57.102Z,8.38
2019-05-18T14:41:25.620Z,8.70
2019-05-18T14:43:54.082Z,9.18
2019-05-18T14:46:22.547Z,7.83
2019-05-18T14:48:51.047Z,8.68
2019-05-18T14:51:19.494Z,7.90
2019-05-18T14:53:47.952Z,7.83
2019-05-18T14:56:16.453Z,8.55
2019-05-18T14:58:44.928Z,8.35
2019-05-18T15:01:13.384Z,7.53
2019-05-18T15:03:41.965Z,7.92
2019-05-18T15:06:10.420Z,7.12
2019-05-18T15:08:38.881Z,8.48
2019-05-18T15:11:07.450Z,7.53
2019-05-18T15:13:35.976Z,8.53
2019-05-18T15:16:05.361Z,7.53
2019-05-18T15:18:33.862Z,8.48
2019-05-18T15:21:02.323Z,7.72
2019-05-18T15:23:30.795Z,7.92
2019-05-18T15:25:59.308Z,7.95
2019-05-18T15:28:27.761Z,8.68
2019-05-18T15:30:56.223Z,8.33
2019-05-18T15:33:24.720Z,8.40
2019-05-18T15:35:53.181Z,9.35
2019-05-18T15:38:21.636Z,8.13
2019-05-18T15:40:50.140Z,8.10
2019-05-18T15:43:18.587Z,8.75
2019-05-18T15:45:47.048Z,7.60
2019-05-18T15:48:15.541Z,7.30
2019-05-18T15:50:44.078Z,7.47
2019-05-18T15:53:12.601Z,7.35
2019-05-18T15:55:41.097Z,7.12
2019-05-18T15:58:09.548Z,7.20
2019-05-18T16:00:38.080Z,6.92
2019-05-18T16:03:06.641Z,7.45
2019-05-18T16:05:35.755Z,7.45
2019-05-18T16:08:04.423Z,9.53
2019-05-18T16:10:32.964Z,9.63
2019-05-18T16:13:01.502Z,9.35
2019-05-18T16:15:30.156Z,8.68
2019-05-18T16:17:58.656Z,8.55
2019-05-18T16:20:46.553Z,9.33
2019-05-18T16:23:15.042Z,12.60
2019-05-18T16:25:44.141Z,10.58
2019-05-18T16:28:12.603Z,10.50
2019-05-18T16:30:41.237Z,10.05
2019-05-18T16:33:09.689Z,12.23
2019-05-18T16:35:38.145Z,10.48
2019-05-18T16:38:06.635Z,9.73
2019-05-18T16:40:35.113Z,11.90
2019-05-18T16:43:03.643Z,9.88
2019-05-18T16:45:32.148Z,13.00
2019-05-18T16:48:00.597Z,11.18
2019-05-18T16:50:29.076Z,11.20
2019-05-18T16:52:57.650Z,11.20
2019-05-18T16:55:26.103Z,11.93
2019-05-18T16:57:54.591Z,11.22
2019-05-18T17:00:23.787Z,10.65
2019-05-18T17:02:52.263Z,10.50
2019-05-18T17:05:20.795Z,10.88
2019-05-18T17:07:49.368Z,12.78
2019-05-18T17:10:18.869Z,11.90
2019-05-18T17:12:47.348Z,12.05
2019-05-18T17:15:16.417Z,10.35
2019-05-18T17:17:44.948Z,10.93
2019-05-18T17:20:14.018Z,10.53
2019-05-18T17:22:42.534Z,10.45
2019-05-18T17:25:12.680Z,11.63
2019-05-18T17:27:41.149Z,14.35
2019-05-18T17:30:10.949Z,15.32
2019-05-18T17:32:39.407Z,15.05
2019-05-18T17:35:08.813Z,14.43
2019-05-18T17:37:37.316Z,15.88
2019-05-18T17:40:07.442Z,17.05
2019-05-18T17:42:35.967Z,17.35
2019-05-18T17:45:07.421Z,17.85
2019-05-18T17:47:35.890Z,18.37
2019-05-18T17:50:07.561Z,18.15
2019-05-18T17:52:36.086Z,18.70
2019-05-18T17:55:06.156Z,19.90
2019-05-18T17:57:34.622Z,22.65
2019-05-18T18:00:04.666Z,23.50
2019-05-18T18:02:33.203Z,23.50
2019-05-18T18:05:01.660Z,24.87
2019-05-18T18:07:30.146Z,25.90
2019-05-18T18:09:58.610Z,26.77
2019-05-18T18:12:27.149Z,25.65
2019-05-18T18:14:55.655Z,24.47
2019-05-18T18:17:24.127Z,23.92
2019-05-18T18:19:52.647Z,23.25
2019-05-18T18:22:23.743Z,23.18
2019-05-18T18:24:51.347Z,28.45
2019-05-18T18:27:25.298Z,28.55
2019-05-18T18:29:50.191Z,28.47
2019-05-18T18:32:18.735Z,33.65
2019-05-18T18:34:47.202Z,32.58
2019-05-18T18:37:15.702Z,34.55
2019-05-18T18:39:44.174Z,33.80
2019-05-18T18:42:12.705Z,33.18
2019-05-18T18:44:41.208Z,35.23
2019-05-18T18:47:09.669Z,31.50
2019-05-18T18:49:38.131Z,32.67
2019-05-18T18:52:06.720Z,32.65
2019-05-18T18:54:35.254Z,32.67
2019-05-18T18:57:03.765Z,33.88
2019-05-18T18:59:32.264Z,34.73
2019-05-18T19:02:00.737Z,35.35
2019-05-18T19:04:29.362Z,34.40
2019-05-18T19:06:57.926Z,34.43
2019-05-18T19:09:26.385Z,35.90
2019-05-18T19:11:54.848Z,36.23
2019-05-18T19:14:23.537Z,35.58
2019-05-18T19:16:52.135Z,35.68
2019-05-18T19:19:20.618Z,36.58
2019-05-18T19:21:49.132Z,36.48
2019-05-18T19:24:17.582Z,38.08
2019-05-18T19:26:46.045Z,37.85
2019-05-18T19:29:14.742Z,36.60
2019-05-18T19:31:43.203Z,36.93
2019-05-18T19:34:11.661Z,38.98
2019-05-18T19:36:40.379Z,37.63
2019-05-18T19:39:08.840Z,37.73
2019-05-18T19:41:37.408Z,38.98
2019-05-18T19:44:05.943Z,37.38
2019-05-18T19:46:34.420Z,36.58
2019-05-18T19:49:02.944Z,38.30
2019-05-18T19:51:31.471Z,36.95
2019-05-18T19:53:59.974Z,36.95
2019-05-18T19:56:28.430Z,35.60
2019-05-18T19:58:56.939Z,35.95
2019-05-18T20:01:25.481Z,34.65
2019-05-18T20:03:53.961Z,36.17
2019-05-18T20:06:22.451Z,36.03
2019-05-18T20:08:51.030Z,36.53
2019-05-18T20:11:19.568Z,35.75
2019-05-18T20:13:48.054Z,36.48
2019-05-18T20:16:16.575Z,37.95
2019-05-18T20:18:45.041Z,37.70
2019-05-18T20:21:13.504Z,38.60
2019-05-18T20:23:42.074Z,38.80
2019-05-18T20:26:10.543Z,38.08
2019-05-18T20:28:39.071Z,38.95
2019-05-18T20:31:07.640Z,38.08
2019-05-18T20:33:36.103Z,39.58
2019-05-18T20:36:04.582Z,38.42
2019-05-18T20:38:33.054Z,38.58
2019-05-18T20:41:01.554Z,38.10
2019-05-18T20:43:30.017Z,38.48
2019-05-18T20:45:58.509Z,39.60
2019-05-18T20:48:27.166Z,39.08
2019-05-18T20:50:55.621Z,38.88
2019-05-18T20:53:24.106Z,38.85
2019-05-18T20:55:52.574Z,38.38
2019-05-18T20:58:21.156Z,37.13
2019-05-18T21:00:49.694Z,37.93
2019-05-18T21:03:18.169Z,38.28
2019-05-18T21:05:46.719Z,37.15
2019-05-18T21:08:15.179Z,38.70
2019-05-18T21:10:44.700Z,39.58
2019-05-18T21:13:13.165Z,39.95
2019-05-18T21:15:41.664Z,40.78
2019-05-18T21:18:10.137Z,39.75
2019-05-18T21:20:38.598Z,42.75
2019-05-18T21:23:07.076Z,39.70
2019-05-18T21:25:35.564Z,40.33
2019-05-18T21:28:04.055Z,42.53
2019-05-18T21:30:32.581Z,42.45
2019-05-18T21:33:01.091Z,42.90
2019-05-18T21:35:29.562Z,44.23
2019-05-18T21:37:58.027Z,44.10
2019-05-18T21:40:26.596Z,45.43
2019-05-18T21:42:55.135Z,44.65
2019-05-18T21:45:23.600Z,44.83
2019-05-18T21:47:52.069Z,45.05
2019-05-18T21:50:20.645Z,45.52
2019-05-18T21:52:49.104Z,44.40
2019-05-18T21:55:17.563Z,46.63
2019-05-18T21:57:46.029Z,45.48
2019-05-18T22:00:15.130Z,48.63
2019-05-18T22:02:43.847Z,47.08
2019-05-18T22:05:12.553Z,47.75
2019-05-18T22:07:41.062Z,47.55
2019-05-18T22:10:23.444Z,50.48
2019-05-18T22:12:40.163Z,50.55
2019-05-18T22:15:09.274Z,48.78
2019-05-18T22:17:56.069Z,50.12
2019-05-18T22:20:24.568Z,50.63
2019-05-18T22:22:53.086Z,49.30
2019-05-18T22:25:21.598Z,50.43
2019-05-18T22:27:50.150Z,49.95
2019-05-18T22:30:18.718Z,48.65
2019-05-18T22:32:47.237Z,49.27
2019-05-18T22:35:15.716Z,50.38
2019-05-18T22:37:44.268Z,49.83
2019-05-18T22:40:12.943Z,50.52
2019-05-18T22:42:41.458Z,51.65
2019-05-18T22:45:10.903Z,51.18
2019-05-18T22:47:39.372Z,52.10
2019-05-18T22:50:08.584Z,52.10
2019-05-18T22:52:37.049Z,53.35
2019-05-18T22:55:06.862Z,52.27
2019-05-18T22:57:35.340Z,53.05
2019-05-18T23:00:06.038Z,52.78
2019-05-18T23:02:34.506Z,51.63
2019-05-18T23:05:02.972Z,54.85
2019-05-18T23:07:31.456Z,52.75
2019-05-18T23:09:59.918Z,52.78
2019-05-18T23:12:28.467Z,53.42
2019-05-18T23:14:56.946Z,55.55
2019-05-18T23:17:25.433Z,54.70
2019-05-18T23:19:53.895Z,55.03
2019-05-18T23:22:22.373Z,54.58
2019-05-18T23:24:50.928Z,55.52
2019-05-18T23:27:19.451Z,55.35
2019-05-18T23:29:47.926Z,54.60
2019-05-18T23:32:16.400Z,55.55
2019-05-18T23:34:44.876Z,57.23
2019-05-18T23:37:13.366Z,57.15
2019-05-18T23:39:41.826Z,56.98
2019-05-18T23:42:10.315Z,58.13
2019-05-18T23:44:38.767Z,55.10
2019-05-18T23:47:07.223Z,56.73
2019-05-18T23:49:35.709Z,55.95
2019-05-18T23:52:04.173Z,57.17
2019-05-18T23:54:32.795Z,57.80
2019-05-18T23:57:01.267Z,57.62
2019-05-18T23:59:29.720Z,57.75
